sensor_id;sensor_type;location;lat;lon;timestamp;P1;durP1;ratioP1;P2;durP2;ratioP2
44456;SDS011;30159;49.316;8.558;2022-08-02T00:00:15;4.10;;;3.70;;
44456;SDS011;30159;49.316;8.558;2022-08-02T00:02:43;3.80;;;3.60;;
44456;SDS011;30159;49.316;8.558;2022-08-02T00:05:11;4.00;;;3.70;;
44456;SDS011;30159;49.316;8.558;2022-08-02T00:07:39;3.37;;;3.17;;
44456;SDS011;30159;49.316;8.558;2022-08-02T00:10:08;3.70;;;3.20;;
44456;SDS011;30159;49.316;8.558;2022-08-02T00:12:36;3.23;;;3.03;;
44456;SDS011;30159;49.316;8.558;2022-08-02T00:15:03;3.27;;;3.07;;
44456;SDS011;30159;49.316;8.558;2022-08-02T00:17:30;3.00;;;2.80;;
44456;SDS011;30159;49.316;8.558;2022-08-02T00:19:57;2.80;;;2.60;;
44456;SDS011;30159;49.316;8.558;2022-08-02T00:22:23;3.43;;;3.23;;
44456;SDS011;30159;49.316;8.558;2022-08-02T00:24:50;4.33;;;3.93;;
44456;SDS011;30159;49.316;8.558;2022-08-02T00:27:18;3.63;;;3.43;;
44456;SDS011;30159;49.316;8.558;2022-08-02T00:29:45;3.43;;;3.13;;
44456;SDS011;30159;49.316;8.558;2022-08-02T00:32:11;3.30;;;3.00;;
44456;SDS011;30159;49.316;8.558;2022-08-02T00:34:38;3.77;;;3.57;;
44456;SDS011;30159;49.316;8.558;2022-08-02T00:37:04;3.10;;;2.90;;
44456;SDS011;30159;49.316;8.558;2022-08-02T00:39:31;3.60;;;3.40;;
44456;SDS011;30159;49.316;8.558;2022-08-02T00:41:57;2.97;;;2.83;;
44456;SDS011;30159;49.316;8.558;2022-08-02T00:44:25;4.17;;;3.70;;
44456;SDS011;30159;49.316;8.558;2022-08-02T00:46:52;2.80;;;2.60;;
44456;SDS011;30159;49.316;8.558;2022-08-02T00:49:19;3.17;;;2.97;;
44456;SDS011;30159;49.316;8.558;2022-08-02T00:51:46;4.23;;;2.97;;
44456;SDS011;30159;49.316;8.558;2022-08-02T00:54:12;3.40;;;3.20;;
44456;SDS011;30159;49.316;8.558;2022-08-02T00:56:39;3.43;;;3.10;;
44456;SDS011;30159;49.316;8.558;2022-08-02T00:59:06;2.70;;;2.53;;
44456;SDS011;30159;49.316;8.558;2022-08-02T01:01:33;3.07;;;2.87;;
44456;SDS011;30159;49.316;8.558;2022-08-02T01:04:04;3.17;;;2.97;;
44456;SDS011;30159;49.316;8.558;2022-08-02T01:06:31;4.20;;;3.93;;
44456;SDS011;30159;49.316;8.558;2022-08-02T01:08:58;3.20;;;3.00;;
44456;SDS011;30159;49.316;8.558;2022-08-02T01:11:26;2.87;;;2.67;;
44456;SDS011;30159;49.316;8.558;2022-08-02T01:13:53;3.50;;;3.30;;
44456;SDS011;30159;49.316;8.558;2022-08-02T01:16:22;3.23;;;3.03;;
44456;SDS011;30159;49.316;8.558;2022-08-02T01:18:56;3.73;;;3.23;;
44456;SDS011;30159;49.316;8.558;2022-08-02T01:24:20;2.90;;;2.70;;
44456;SDS011;30159;49.316;8.558;2022-08-02T01:26:57;3.67;;;3.37;;
44456;SDS011;30159;49.316;8.558;2022-08-02T01:29:34;3.00;;;2.80;;
44456;SDS011;30159;49.316;8.558;2022-08-02T01:32:05;3.53;;;3.33;;
44456;SDS011;30159;49.316;8.558;2022-08-02T01:34:36;2.77;;;2.63;;
44456;SDS011;30159;49.316;8.558;2022-08-02T01:37:08;6.50;;;3.67;;
44456;SDS011;30159;49.316;8.558;2022-08-02T01:39:39;5.30;;;3.67;;
44456;SDS011;30159;49.316;8.558;2022-08-02T01:42:09;2.90;;;2.60;;
44456;SDS011;30159;49.316;8.558;2022-08-02T01:44:38;3.67;;;3.37;;
44456;SDS011;30159;49.316;8.558;2022-08-02T01:47:08;5.23;;;3.20;;
44456;SDS011;30159;49.316;8.558;2022-08-02T01:49:41;12.53;;;3.87;;
44456;SDS011;30159;49.316;8.558;2022-08-02T01:52:11;3.47;;;3.27;;
44456;SDS011;30159;49.316;8.558;2022-08-02T01:54:47;6.87;;;3.50;;
44456;SDS011;30159;49.316;8.558;2022-08-02T01:57:15;2.97;;;2.67;;
44456;SDS011;30159;49.316;8.558;2022-08-02T01:59:44;3.47;;;3.27;;
44456;SDS011;30159;49.316;8.558;2022-08-02T02:02:13;3.43;;;2.90;;
44456;SDS011;30159;49.316;8.558;2022-08-02T02:04:41;4.33;;;4.10;;
44456;SDS011;30159;49.316;8.558;2022-08-02T02:07:11;4.27;;;3.97;;
44456;SDS011;30159;49.316;8.558;2022-08-02T02:09:41;4.20;;;3.90;;
44456;SDS011;30159;49.316;8.558;2022-08-02T02:12:08;4.67;;;4.10;;
44456;SDS011;30159;49.316;8.558;2022-08-02T02:14:40;6.27;;;3.67;;
44456;SDS011;30159;49.316;8.558;2022-08-02T02:17:10;3.83;;;3.43;;
44456;SDS011;30159;49.316;8.558;2022-08-02T02:19:38;3.30;;;3.10;;
44456;SDS011;30159;49.316;8.558;2022-08-02T02:22:06;4.07;;;3.87;;
44456;SDS011;30159;49.316;8.558;2022-08-02T02:24:33;3.83;;;3.63;;
44456;SDS011;30159;49.316;8.558;2022-08-02T02:27:00;3.40;;;3.20;;
44456;SDS011;30159;49.316;8.558;2022-08-02T02:29:28;4.00;;;3.70;;
44456;SDS011;30159;49.316;8.558;2022-08-02T02:31:57;3.57;;;3.37;;
44456;SDS011;30159;49.316;8.558;2022-08-02T02:34:28;3.63;;;3.43;;
44456;SDS011;30159;49.316;8.558;2022-08-02T02:36:58;4.00;;;3.70;;
44456;SDS011;30159;49.316;8.558;2022-08-02T02:39:28;3.77;;;3.57;;
44456;SDS011;30159;49.316;8.558;2022-08-02T02:41:57;3.50;;;3.20;;
44456;SDS011;30159;49.316;8.558;2022-08-02T02:44:27;4.53;;;4.33;;
44456;SDS011;30159;49.316;8.558;2022-08-02T02:46:55;4.37;;;4.07;;
44456;SDS011;30159;49.316;8.558;2022-08-02T02:49:23;4.03;;;3.73;;
44456;SDS011;30159;49.316;8.558;2022-08-02T02:51:53;4.87;;;4.47;;
44456;SDS011;30159;49.316;8.558;2022-08-02T02:54:21;4.57;;;4.27;;
44456;SDS011;30159;49.316;8.558;2022-08-02T02:56:49;4.60;;;4.30;;
44456;SDS011;30159;49.316;8.558;2022-08-02T02:59:17;4.30;;;4.00;;
44456;SDS011;30159;49.316;8.558;2022-08-02T03:01:44;4.03;;;3.83;;
44456;SDS011;30159;49.316;8.558;2022-08-02T03:04:11;6.10;;;4.47;;
44456;SDS011;30159;49.316;8.558;2022-08-02T03:06:39;4.30;;;3.87;;
44456;SDS011;30159;49.316;8.558;2022-08-02T03:09:07;4.70;;;4.30;;
44456;SDS011;30159;49.316;8.558;2022-08-02T03:11:35;4.23;;;3.70;;
44456;SDS011;30159;49.316;8.558;2022-08-02T03:14:04;4.57;;;4.37;;
44456;SDS011;30159;49.316;8.558;2022-08-02T03:16:40;4.27;;;3.87;;
44456;SDS011;30159;49.316;8.558;2022-08-02T03:19:08;3.63;;;3.33;;
44456;SDS011;30159;49.316;8.558;2022-08-02T03:21:34;5.10;;;3.20;;
44456;SDS011;30159;49.316;8.558;2022-08-02T03:24:01;4.33;;;4.13;;
44456;SDS011;30159;49.316;8.558;2022-08-02T03:26:29;3.77;;;3.50;;
44456;SDS011;30159;49.316;8.558;2022-08-02T03:28:56;3.50;;;3.30;;
44456;SDS011;30159;49.316;8.558;2022-08-02T03:31:22;4.30;;;3.73;;
44456;SDS011;30159;49.316;8.558;2022-08-02T03:33:49;3.90;;;3.60;;
44456;SDS011;30159;49.316;8.558;2022-08-02T03:36:16;3.73;;;3.53;;
44456;SDS011;30159;49.316;8.558;2022-08-02T03:38:46;3.90;;;3.70;;
44456;SDS011;30159;49.316;8.558;2022-08-02T03:41:14;4.00;;;3.80;;
44456;SDS011;30159;49.316;8.558;2022-08-02T03:43:44;4.03;;;3.83;;
44456;SDS011;30159;49.316;8.558;2022-08-02T03:46:12;4.00;;;3.70;;
44456;SDS011;30159;49.316;8.558;2022-08-02T03:48:41;4.27;;;3.93;;
44456;SDS011;30159;49.316;8.558;2022-08-02T03:51:08;3.73;;;3.53;;
44456;SDS011;30159;49.316;8.558;2022-08-02T03:53:36;4.13;;;3.73;;
44456;SDS011;30159;49.316;8.558;2022-08-02T03:56:03;3.30;;;3.10;;
44456;SDS011;30159;49.316;8.558;2022-08-02T03:58:32;4.37;;;3.97;;
44456;SDS011;30159;49.316;8.558;2022-08-02T04:01:00;4.30;;;4.00;;
44456;SDS011;30159;49.316;8.558;2022-08-02T04:03:27;3.73;;;3.50;;
44456;SDS011;30159;49.316;8.558;2022-08-02T04:05:54;4.07;;;3.87;;
44456;SDS011;30159;49.316;8.558;2022-08-02T04:08:20;5.00;;;4.60;;
44456;SDS011;30159;49.316;8.558;2022-08-02T04:10:47;5.03;;;3.70;;
44456;SDS011;30159;49.316;8.558;2022-08-02T04:13:32;4.10;;;3.90;;
44456;SDS011;30159;49.316;8.558;2022-08-02T04:16:03;4.57;;;4.03;;
44456;SDS011;30159;49.316;8.558;2022-08-02T04:18:38;3.90;;;3.57;;
44456;SDS011;30159;49.316;8.558;2022-08-02T04:21:08;5.90;;;3.70;;
44456;SDS011;30159;49.316;8.558;2022-08-02T04:23:38;4.47;;;4.27;;
44456;SDS011;30159;49.316;8.558;2022-08-02T04:26:07;4.83;;;3.60;;
44456;SDS011;30159;49.316;8.558;2022-08-02T04:28:35;4.03;;;3.83;;
44456;SDS011;30159;49.316;8.558;2022-08-02T04:31:04;3.57;;;3.33;;
44456;SDS011;30159;49.316;8.558;2022-08-02T04:33:31;4.00;;;3.70;;
44456;SDS011;30159;49.316;8.558;2022-08-02T04:35:59;4.23;;;4.03;;
44456;SDS011;30159;49.316;8.558;2022-08-02T04:38:27;4.10;;;3.90;;
44456;SDS011;30159;49.316;8.558;2022-08-02T04:40:54;4.13;;;3.80;;
44456;SDS011;30159;49.316;8.558;2022-08-02T04:43:21;4.67;;;4.27;;
44456;SDS011;30159;49.316;8.558;2022-08-02T04:45:49;5.30;;;4.93;;
44456;SDS011;30159;49.316;8.558;2022-08-02T04:48:19;4.60;;;4.40;;
44456;SDS011;30159;49.316;8.558;2022-08-02T04:50:46;5.20;;;4.90;;
44456;SDS011;30159;49.316;8.558;2022-08-02T04:53:13;4.60;;;4.30;;
44456;SDS011;30159;49.316;8.558;2022-08-02T04:55:40;4.63;;;4.30;;
44456;SDS011;30159;49.316;8.558;2022-08-02T04:58:06;4.10;;;3.80;;
44456;SDS011;30159;49.316;8.558;2022-08-02T05:00:33;4.43;;;4.10;;
44456;SDS011;30159;49.316;8.558;2022-08-02T05:03:00;4.23;;;4.03;;
44456;SDS011;30159;49.316;8.558;2022-08-02T05:05:28;3.90;;;3.70;;
44456;SDS011;30159;49.316;8.558;2022-08-02T05:07:55;4.10;;;3.90;;
44456;SDS011;30159;49.316;8.558;2022-08-02T05:10:21;4.70;;;4.40;;
44456;SDS011;30159;49.316;8.558;2022-08-02T05:12:48;5.30;;;3.80;;
44456;SDS011;30159;49.316;8.558;2022-08-02T05:15:15;4.00;;;3.80;;
44456;SDS011;30159;49.316;8.558;2022-08-02T05:17:42;4.67;;;3.63;;
44456;SDS011;30159;49.316;8.558;2022-08-02T05:20:10;4.03;;;3.83;;
44456;SDS011;30159;49.316;8.558;2022-08-02T05:22:40;3.43;;;3.23;;
44456;SDS011;30159;49.316;8.558;2022-08-02T05:25:07;4.40;;;4.10;;
44456;SDS011;30159;49.316;8.558;2022-08-02T05:27:34;5.27;;;4.00;;
44456;SDS011;30159;49.316;8.558;2022-08-02T05:30:01;4.13;;;3.50;;
44456;SDS011;30159;49.316;8.558;2022-08-02T05:32:28;3.27;;;3.07;;
44456;SDS011;30159;49.316;8.558;2022-08-02T05:34:55;2.30;;;2.20;;
44456;SDS011;30159;49.316;8.558;2022-08-02T05:37:21;3.67;;;3.47;;
44456;SDS011;30159;49.316;8.558;2022-08-02T05:39:49;3.40;;;3.20;;
44456;SDS011;30159;49.316;8.558;2022-08-02T05:42:16;3.33;;;3.13;;
44456;SDS011;30159;49.316;8.558;2022-08-02T05:44:43;3.90;;;3.70;;
44456;SDS011;30159;49.316;8.558;2022-08-02T05:47:09;3.20;;;3.00;;
44456;SDS011;30159;49.316;8.558;2022-08-02T05:49:36;3.90;;;3.60;;
44456;SDS011;30159;49.316;8.558;2022-08-02T05:52:03;3.37;;;3.07;;
44456;SDS011;30159;49.316;8.558;2022-08-02T05:54:39;3.63;;;3.43;;
44456;SDS011;30159;49.316;8.558;2022-08-02T05:57:15;3.57;;;3.37;;
44456;SDS011;30159;49.316;8.558;2022-08-02T05:59:52;4.47;;;3.40;;
44456;SDS011;30159;49.316;8.558;2022-08-02T06:02:31;4.40;;;4.03;;
44456;SDS011;30159;49.316;8.558;2022-08-02T06:05:07;4.43;;;3.90;;
44456;SDS011;30159;49.316;8.558;2022-08-02T06:07:36;3.37;;;3.20;;
44456;SDS011;30159;49.316;8.558;2022-08-02T06:10:06;3.83;;;3.63;;
44456;SDS011;30159;49.316;8.558;2022-08-02T06:12:40;3.90;;;3.70;;
44456;SDS011;30159;49.316;8.558;2022-08-02T06:15:11;3.20;;;3.00;;
44456;SDS011;30159;49.316;8.558;2022-08-02T06:17:40;3.93;;;3.73;;
44456;SDS011;30159;49.316;8.558;2022-08-02T06:20:07;3.70;;;3.50;;
44456;SDS011;30159;49.316;8.558;2022-08-02T06:22:35;3.43;;;3.13;;
44456;SDS011;30159;49.316;8.558;2022-08-02T06:25:06;3.20;;;3.00;;
44456;SDS011;30159;49.316;8.558;2022-08-02T06:27:33;2.67;;;2.57;;
44456;SDS011;30159;49.316;8.558;2022-08-02T06:30:02;2.73;;;2.63;;
44456;SDS011;30159;49.316;8.558;2022-08-02T06:32:30;3.30;;;3.10;;
44456;SDS011;30159;49.316;8.558;2022-08-02T06:34:58;4.07;;;3.87;;
44456;SDS011;30159;49.316;8.558;2022-08-02T06:37:25;3.57;;;3.27;;
44456;SDS011;30159;49.316;8.558;2022-08-02T06:39:58;2.87;;;2.77;;
44456;SDS011;30159;49.316;8.558;2022-08-02T06:42:35;2.50;;;2.40;;
44456;SDS011;30159;49.316;8.558;2022-08-02T06:45:12;3.40;;;3.10;;
44456;SDS011;30159;49.316;8.558;2022-08-02T06:47:39;2.63;;;2.43;;
44456;SDS011;30159;49.316;8.558;2022-08-02T06:50:06;2.57;;;2.47;;
44456;SDS011;30159;49.316;8.558;2022-08-02T06:52:33;2.33;;;2.23;;
44456;SDS011;30159;49.316;8.558;2022-08-02T06:55:00;4.37;;;3.30;;
44456;SDS011;30159;49.316;8.558;2022-08-02T06:57:29;2.60;;;2.50;;
44456;SDS011;30159;49.316;8.558;2022-08-02T06:59:58;2.60;;;2.47;;
44456;SDS011;30159;49.316;8.558;2022-08-02T07:02:27;3.27;;;3.07;;
44456;SDS011;30159;49.316;8.558;2022-08-02T07:04:54;3.53;;;2.90;;
44456;SDS011;30159;49.316;8.558;2022-08-02T07:07:20;2.60;;;2.43;;
44456;SDS011;30159;49.316;8.558;2022-08-02T07:09:47;3.47;;;3.27;;
44456;SDS011;30159;49.316;8.558;2022-08-02T07:12:15;3.30;;;3.10;;
44456;SDS011;30159;49.316;8.558;2022-08-02T07:14:42;3.10;;;2.90;;
44456;SDS011;30159;49.316;8.558;2022-08-02T07:17:10;2.57;;;2.47;;
44456;SDS011;30159;49.316;8.558;2022-08-02T07:19:36;2.30;;;2.20;;
44456;SDS011;30159;49.316;8.558;2022-08-02T07:22:03;2.73;;;2.63;;
44456;SDS011;30159;49.316;8.558;2022-08-02T07:24:30;2.60;;;2.50;;
44456;SDS011;30159;49.316;8.558;2022-08-02T07:26:57;2.67;;;2.57;;
44456;SDS011;30159;49.316;8.558;2022-08-02T07:29:23;2.60;;;2.50;;
44456;SDS011;30159;49.316;8.558;2022-08-02T07:31:53;2.70;;;2.60;;
44456;SDS011;30159;49.316;8.558;2022-08-02T07:34:21;3.93;;;2.43;;
44456;SDS011;30159;49.316;8.558;2022-08-02T07:36:47;3.57;;;3.27;;
44456;SDS011;30159;49.316;8.558;2022-08-02T07:39:14;2.80;;;2.50;;
44456;SDS011;30159;49.316;8.558;2022-08-02T07:41:40;2.60;;;2.50;;
44456;SDS011;30159;49.316;8.558;2022-08-02T07:44:07;8.40;;;2.63;;
44456;SDS011;30159;49.316;8.558;2022-08-02T07:46:34;2.63;;;2.43;;
44456;SDS011;30159;49.316;8.558;2022-08-02T07:49:00;2.80;;;2.70;;
44456;SDS011;30159;49.316;8.558;2022-08-02T07:51:28;3.37;;;2.60;;
44456;SDS011;30159;49.316;8.558;2022-08-02T07:53:57;2.73;;;2.53;;
44456;SDS011;30159;49.316;8.558;2022-08-02T07:56:23;3.13;;;2.93;;
44456;SDS011;30159;49.316;8.558;2022-08-02T07:58:50;2.50;;;2.30;;
44456;SDS011;30159;49.316;8.558;2022-08-02T08:01:16;2.60;;;2.40;;
44456;SDS011;30159;49.316;8.558;2022-08-02T08:03:43;2.57;;;2.03;;
44456;SDS011;30159;49.316;8.558;2022-08-02T08:06:10;2.47;;;2.37;;
44456;SDS011;30159;49.316;8.558;2022-08-02T08:08:38;2.67;;;2.47;;
44456;SDS011;30159;49.316;8.558;2022-08-02T08:11:04;2.40;;;2.30;;
44456;SDS011;30159;49.316;8.558;2022-08-02T08:13:31;2.40;;;2.13;;
44456;SDS011;30159;49.316;8.558;2022-08-02T08:15:58;3.40;;;2.80;;
44456;SDS011;30159;49.316;8.558;2022-08-02T08:18:26;3.00;;;2.67;;
44456;SDS011;30159;49.316;8.558;2022-08-02T08:20:52;2.67;;;2.47;;
44456;SDS011;30159;49.316;8.558;2022-08-02T08:23:19;2.90;;;2.70;;
44456;SDS011;30159;49.316;8.558;2022-08-02T08:25:47;2.70;;;2.50;;
44456;SDS011;30159;49.316;8.558;2022-08-02T08:28:14;2.50;;;2.30;;
44456;SDS011;30159;49.316;8.558;2022-08-02T08:30:41;3.17;;;2.17;;
44456;SDS011;30159;49.316;8.558;2022-08-02T08:33:07;2.47;;;2.27;;
44456;SDS011;30159;49.316;8.558;2022-08-02T08:35:34;2.70;;;2.50;;
44456;SDS011;30159;49.316;8.558;2022-08-02T08:38:01;2.40;;;2.30;;
44456;SDS011;30159;49.316;8.558;2022-08-02T08:40:27;2.67;;;2.47;;
44456;SDS011;30159;49.316;8.558;2022-08-02T08:42:55;2.17;;;2.07;;
44456;SDS011;30159;49.316;8.558;2022-08-02T08:45:22;2.17;;;2.07;;
44456;SDS011;30159;49.316;8.558;2022-08-02T08:47:50;2.67;;;2.57;;
44456;SDS011;30159;49.316;8.558;2022-08-02T08:50:22;5.53;;;2.30;;
44456;SDS011;30159;49.316;8.558;2022-08-02T08:52:52;2.10;;;2.00;;
44456;SDS011;30159;49.316;8.558;2022-08-02T08:55:22;2.17;;;2.07;;
44456;SDS011;30159;49.316;8.558;2022-08-02T08:57:50;4.50;;;2.30;;
44456;SDS011;30159;49.316;8.558;2022-08-02T09:00:21;2.37;;;2.00;;
44456;SDS011;30159;49.316;8.558;2022-08-02T09:02:47;2.23;;;2.13;;
44456;SDS011;30159;49.316;8.558;2022-08-02T09:05:15;1.87;;;1.77;;
44456;SDS011;30159;49.316;8.558;2022-08-02T09:07:44;2.03;;;1.93;;
44456;SDS011;30159;49.316;8.558;2022-08-02T09:10:35;1.90;;;1.80;;
44456;SDS011;30159;49.316;8.558;2022-08-02T09:13:08;4.53;;;1.93;;
44456;SDS011;30159;49.316;8.558;2022-08-02T09:15:38;1.97;;;1.70;;
44456;SDS011;30159;49.316;8.558;2022-08-02T09:18:06;1.90;;;1.80;;
44456;SDS011;30159;49.316;8.558;2022-08-02T09:20:34;1.93;;;1.83;;
44456;SDS011;30159;49.316;8.558;2022-08-02T09:23:16;2.07;;;1.87;;
44456;SDS011;30159;49.316;8.558;2022-08-02T09:25:44;1.50;;;1.40;;
44456;SDS011;30159;49.316;8.558;2022-08-02T09:28:24;1.80;;;1.70;;
44456;SDS011;30159;49.316;8.558;2022-08-02T09:30:56;2.30;;;1.60;;
44456;SDS011;30159;49.316;8.558;2022-08-02T09:33:24;1.90;;;1.80;;
44456;SDS011;30159;49.316;8.558;2022-08-02T09:35:54;1.70;;;1.60;;
44456;SDS011;30159;49.316;8.558;2022-08-02T09:38:25;2.10;;;1.90;;
44456;SDS011;30159;49.316;8.558;2022-08-02T09:40:52;2.40;;;2.30;;
44456;SDS011;30159;49.316;8.558;2022-08-02T09:43:18;1.97;;;1.63;;
44456;SDS011;30159;49.316;8.558;2022-08-02T09:45:45;1.70;;;1.60;;
44456;SDS011;30159;49.316;8.558;2022-08-02T09:48:13;1.60;;;1.50;;
44456;SDS011;30159;49.316;8.558;2022-08-02T09:50:40;2.80;;;1.50;;
44456;SDS011;30159;49.316;8.558;2022-08-02T09:53:10;2.53;;;1.90;;
44456;SDS011;30159;49.316;8.558;2022-08-02T09:55:38;1.83;;;1.73;;
44456;SDS011;30159;49.316;8.558;2022-08-02T09:58:17;1.70;;;1.60;;
44456;SDS011;30159;49.316;8.558;2022-08-02T10:00:55;2.00;;;1.57;;
44456;SDS011;30159;49.316;8.558;2022-08-02T10:03:24;3.40;;;1.70;;
44456;SDS011;30159;49.316;8.558;2022-08-02T10:05:51;2.00;;;1.47;;
44456;SDS011;30159;49.316;8.558;2022-08-02T10:08:20;1.63;;;1.53;;
44456;SDS011;30159;49.316;8.558;2022-08-02T10:10:47;1.53;;;1.43;;
44456;SDS011;30159;49.316;8.558;2022-08-02T10:13:24;1.70;;;1.60;;
44456;SDS011;30159;49.316;8.558;2022-08-02T10:15:53;1.60;;;1.50;;
44456;SDS011;30159;49.316;8.558;2022-08-02T10:18:21;1.60;;;1.50;;
44456;SDS011;30159;49.316;8.558;2022-08-02T10:20:49;1.60;;;1.50;;
44456;SDS011;30159;49.316;8.558;2022-08-02T10:23:17;1.60;;;1.50;;
44456;SDS011;30159;49.316;8.558;2022-08-02T10:25:45;1.63;;;1.53;;
44456;SDS011;30159;49.316;8.558;2022-08-02T10:28:15;1.50;;;1.40;;
44456;SDS011;30159;49.316;8.558;2022-08-02T10:30:45;1.70;;;1.60;;
44456;SDS011;30159;49.316;8.558;2022-08-02T10:33:14;1.70;;;1.60;;
44456;SDS011;30159;49.316;8.558;2022-08-02T10:35:43;1.60;;;1.50;;
44456;SDS011;30159;49.316;8.558;2022-08-02T10:38:14;1.97;;;1.57;;
44456;SDS011;30159;49.316;8.558;2022-08-02T10:40:43;1.77;;;1.67;;
44456;SDS011;30159;49.316;8.558;2022-08-02T10:46:22;1.40;;;1.30;;
44456;SDS011;30159;49.316;8.558;2022-08-02T10:54:33;1.83;;;1.40;;
44456;SDS011;30159;49.316;8.558;2022-08-02T10:57:03;2.57;;;1.20;;
44456;SDS011;30159;49.316;8.558;2022-08-02T10:59:40;1.97;;;1.43;;
44456;SDS011;30159;49.316;8.558;2022-08-02T11:02:06;1.43;;;1.33;;
44456;SDS011;30159;49.316;8.558;2022-08-02T11:07:32;1.40;;;1.30;;
44456;SDS011;30159;49.316;8.558;2022-08-02T11:13:06;1.30;;;1.20;;
44456;SDS011;30159;49.316;8.558;2022-08-02T11:15:49;2.03;;;1.27;;
44456;SDS011;30159;49.316;8.558;2022-08-02T11:18:17;2.40;;;1.30;;
44456;SDS011;30159;49.316;8.558;2022-08-02T11:20:44;2.90;;;1.20;;
44456;SDS011;30159;49.316;8.558;2022-08-02T11:29:10;1.43;;;1.33;;
44456;SDS011;30159;49.316;8.558;2022-08-02T11:31:38;1.50;;;1.40;;
44456;SDS011;30159;49.316;8.558;2022-08-02T11:34:05;2.30;;;1.30;;
44456;SDS011;30159;49.316;8.558;2022-08-02T11:36:32;2.07;;;1.97;;
44456;SDS011;30159;49.316;8.558;2022-08-02T11:39:08;1.47;;;1.20;;
44456;SDS011;30159;49.316;8.558;2022-08-02T11:41:36;1.30;;;1.20;;
44456;SDS011;30159;49.316;8.558;2022-08-02T11:44:04;2.43;;;1.13;;
44456;SDS011;30159;49.316;8.558;2022-08-02T11:46:31;1.80;;;1.27;;
44456;SDS011;30159;49.316;8.558;2022-08-02T11:49:09;1.47;;;1.10;;
44456;SDS011;30159;49.316;8.558;2022-08-02T11:51:37;1.63;;;1.30;;
44456;SDS011;30159;49.316;8.558;2022-08-02T11:54:03;2.37;;;1.20;;
44456;SDS011;30159;49.316;8.558;2022-08-02T11:56:30;1.77;;;1.00;;
44456;SDS011;30159;49.316;8.558;2022-08-02T11:59:01;1.20;;;1.10;;
44456;SDS011;30159;49.316;8.558;2022-08-02T12:01:30;1.10;;;1.00;;
44456;SDS011;30159;49.316;8.558;2022-08-02T12:03:58;1.63;;;1.20;;
44456;SDS011;30159;49.316;8.558;2022-08-02T12:06:25;1.10;;;1.00;;
44456;SDS011;30159;49.316;8.558;2022-08-02T12:08:57;1.50;;;1.40;;
44456;SDS011;30159;49.316;8.558;2022-08-02T12:11:24;1.53;;;1.20;;
44456;SDS011;30159;49.316;8.558;2022-08-02T12:13:51;1.10;;;1.00;;
44456;SDS011;30159;49.316;8.558;2022-08-02T12:16:17;1.20;;;1.10;;
44456;SDS011;30159;49.316;8.558;2022-08-02T12:19:03;1.30;;;1.20;;
44456;SDS011;30159;49.316;8.558;2022-08-02T12:21:47;1.10;;;1.00;;
44456;SDS011;30159;49.316;8.558;2022-08-02T12:24:25;1.30;;;1.20;;
44456;SDS011;30159;49.316;8.558;2022-08-02T12:26:53;1.20;;;1.10;;
44456;SDS011;30159;49.316;8.558;2022-08-02T12:29:28;1.03;;;0.83;;
44456;SDS011;30159;49.316;8.558;2022-08-02T12:31:55;1.30;;;1.20;;
44456;SDS011;30159;49.316;8.558;2022-08-02T12:34:23;1.20;;;1.10;;
44456;SDS011;30159;49.316;8.558;2022-08-02T12:37:01;1.27;;;1.17;;
44456;SDS011;30159;49.316;8.558;2022-08-02T12:39:35;1.30;;;1.20;;
44456;SDS011;30159;49.316;8.558;2022-08-02T12:42:04;1.20;;;1.10;;
44456;SDS011;30159;49.316;8.558;2022-08-02T12:44:32;1.33;;;1.20;;
44456;SDS011;30159;49.316;8.558;2022-08-02T12:47:01;1.07;;;1.00;;
44456;SDS011;30159;49.316;8.558;2022-08-02T12:49:30;1.20;;;1.10;;
44456;SDS011;30159;49.316;8.558;2022-08-02T12:51:57;1.20;;;1.10;;
44456;SDS011;30159;49.316;8.558;2022-08-02T12:54:24;0.90;;;0.90;;
44456;SDS011;30159;49.316;8.558;2022-08-02T12:56:52;1.20;;;1.10;;
44456;SDS011;30159;49.316;8.558;2022-08-02T12:59:32;1.13;;;1.03;;
44456;SDS011;30159;49.316;8.558;2022-08-02T13:02:03;1.20;;;1.10;;
44456;SDS011;30159;49.316;8.558;2022-08-02T13:04:32;1.40;;;1.30;;
44456;SDS011;30159;49.316;8.558;2022-08-02T13:06:59;2.27;;;1.30;;
44456;SDS011;30159;49.316;8.558;2022-08-02T13:09:25;1.30;;;1.20;;
44456;SDS011;30159;49.316;8.558;2022-08-02T13:11:52;1.67;;;1.10;;
44456;SDS011;30159;49.316;8.558;2022-08-02T13:14:19;1.40;;;1.30;;
44456;SDS011;30159;49.316;8.558;2022-08-02T13:16:46;1.30;;;1.20;;
44456;SDS011;30159;49.316;8.558;2022-08-02T13:19:13;1.30;;;1.10;;
44456;SDS011;30159;49.316;8.558;2022-08-02T13:21:42;1.33;;;1.23;;
44456;SDS011;30159;49.316;8.558;2022-08-02T13:24:10;1.10;;;1.00;;
44456;SDS011;30159;49.316;8.558;2022-08-02T13:26:40;1.20;;;1.10;;
44456;SDS011;30159;49.316;8.558;2022-08-02T13:29:07;1.37;;;1.20;;
44456;SDS011;30159;49.316;8.558;2022-08-02T13:31:34;4.43;;;1.37;;
44456;SDS011;30159;49.316;8.558;2022-08-02T13:34:03;1.73;;;1.37;;
44456;SDS011;30159;49.316;8.558;2022-08-02T13:36:30;1.40;;;1.30;;
44456;SDS011;30159;49.316;8.558;2022-08-02T13:38:59;1.20;;;1.10;;
44456;SDS011;30159;49.316;8.558;2022-08-02T13:41:26;1.40;;;1.30;;
44456;SDS011;30159;49.316;8.558;2022-08-02T13:43:52;1.20;;;1.10;;
44456;SDS011;30159;49.316;8.558;2022-08-02T13:46:19;2.63;;;1.50;;
44456;SDS011;30159;49.316;8.558;2022-08-02T13:48:46;1.30;;;1.20;;
44456;SDS011;30159;49.316;8.558;2022-08-02T13:51:12;1.30;;;1.20;;
44456;SDS011;30159;49.316;8.558;2022-08-02T13:53:39;3.83;;;1.30;;
44456;SDS011;30159;49.316;8.558;2022-08-02T13:56:08;3.67;;;1.40;;
44456;SDS011;30159;49.316;8.558;2022-08-02T13:58:34;1.63;;;1.17;;
44456;SDS011;30159;49.316;8.558;2022-08-02T14:01:01;1.37;;;1.27;;
44456;SDS011;30159;49.316;8.558;2022-08-02T14:03:27;1.30;;;1.20;;
44456;SDS011;30159;49.316;8.558;2022-08-02T14:05:55;1.40;;;1.30;;
44456;SDS011;30159;49.316;8.558;2022-08-02T14:08:21;1.40;;;1.20;;
44456;SDS011;30159;49.316;8.558;2022-08-02T14:10:48;1.30;;;1.20;;
44456;SDS011;30159;49.316;8.558;2022-08-02T14:13:18;1.60;;;1.50;;
44456;SDS011;30159;49.316;8.558;2022-08-02T14:15:45;1.20;;;1.10;;
44456;SDS011;30159;49.316;8.558;2022-08-02T14:18:12;2.33;;;1.20;;
44456;SDS011;30159;49.316;8.558;2022-08-02T14:20:39;1.43;;;1.33;;
44456;SDS011;30159;49.316;8.558;2022-08-02T14:23:06;1.30;;;1.20;;
44456;SDS011;30159;49.316;8.558;2022-08-02T14:25:32;1.30;;;1.20;;
44456;SDS011;30159;49.316;8.558;2022-08-02T14:27:59;1.30;;;1.20;;
44456;SDS011;30159;49.316;8.558;2022-08-02T14:30:27;1.83;;;1.73;;
44456;SDS011;30159;49.316;8.558;2022-08-02T14:32:54;1.37;;;1.27;;
44456;SDS011;30159;49.316;8.558;2022-08-02T14:35:20;2.23;;;1.40;;
44456;SDS011;30159;49.316;8.558;2022-08-02T14:37:47;1.40;;;1.30;;
44456;SDS011;30159;49.316;8.558;2022-08-02T14:40:14;4.10;;;1.20;;
44456;SDS011;30159;49.316;8.558;2022-08-02T14:42:40;1.43;;;1.33;;
44456;SDS011;30159;49.316;8.558;2022-08-02T14:45:07;1.40;;;1.30;;
44456;SDS011;30159;49.316;8.558;2022-08-02T14:47:36;2.80;;;1.10;;
44456;SDS011;30159;49.316;8.558;2022-08-02T14:50:02;1.30;;;1.20;;
44456;SDS011;30159;49.316;8.558;2022-08-02T14:52:29;1.20;;;1.10;;
44456;SDS011;30159;49.316;8.558;2022-08-02T14:54:56;1.10;;;1.00;;
44456;SDS011;30159;49.316;8.558;2022-08-02T14:57:23;1.40;;;1.30;;
44456;SDS011;30159;49.316;8.558;2022-08-02T14:59:49;1.93;;;1.07;;
44456;SDS011;30159;49.316;8.558;2022-08-02T15:02:16;1.00;;;1.00;;
44456;SDS011;30159;49.316;8.558;2022-08-02T15:04:44;1.10;;;1.00;;
44456;SDS011;30159;49.316;8.558;2022-08-02T15:07:13;1.10;;;1.00;;
44456;SDS011;30159;49.316;8.558;2022-08-02T15:09:39;0.93;;;0.93;;
44456;SDS011;30159;49.316;8.558;2022-08-02T15:12:07;1.20;;;1.10;;
44456;SDS011;30159;49.316;8.558;2022-08-02T15:14:34;1.20;;;1.10;;
44456;SDS011;30159;49.316;8.558;2022-08-02T15:17:01;1.10;;;1.00;;
44456;SDS011;30159;49.316;8.558;2022-08-02T15:19:28;1.27;;;1.17;;